Pilgrim, KY (41250)

12:54 AM EDT on July 28, 2016 (GMT -0400)
Big Branch Road | | Change Station
Active Advisory: Flash Flood Watch

Elev 738 ft 37.78 °N, 82.24 °W | Updated 1 minute ago

Overcast
Overcast
74.1 °F
Feels Like 71 °F
N
0.6
Wind Variable Wind from West
Gusts 1.2 mph

Today
High -- | Low -- °F
--% Chance of Precip.
Yesterday
High -- | Low -- °F
Precip. -- in
Pressure 29.94 in
Visibility 4.0 miles
Clouds Overcast 200 ft
Heat Index 71 °F
Dew Point 73 °F
Humidity 96%
Rainfall 0.00 in
Snow Depth Not available.
6:30 AM 8:41 PM
Last Quarter, 36% visible
METAR KHTS 280451Z 00000KT 4SM BR OVC002 23/23 A2997 RMK AO2 SLP139 T02330228 403280211
Pressure 29.94 in
Visibility 4.0 miles
Clouds Overcast 200 ft
Heat Index 71 °F
Dew Point 73 °F
Humidity 96%
Rainfall 0.00 in
Snow Depth Not available.
6:30 AM 8:41 PM
Last Quarter, 36% visible
METAR KHTS 280451Z 00000KT 4SM BR OVC002 23/23 A2997 RMK AO2 SLP139 T02330228 403280211

10-Day Weather Forecast

Almanac

Astronomy

Jul. 28, 2016 Rise Set
Actual Time
Civil Twilight
Nautical Twilight
Astronomical Twilight
Moon
Length of Visible Light
Length of Day
Tomorrow will be .
, % of the Moon is Illuminated

Today's Extremes

State Highs State Lows

Community

WunderPhotos

Upload Photos

1,928,061 photos uploaded!

WunderBlog® & News

Nearby

Air Quality

  Air Quality AQ Index Pollutant
Not available.

Snow Depth

Station Depth Elevation

Earthquake Activity

City Distance Mag. Time & Date
Minimum magnitude displayed is 2.5.

Coastal Water Temperatures

Place Temperature

Stations

Nearby Weather Stations

Station Location Temp. Windchill Dew Point Humidity Wind Precip. Elev Updated Type
                   

Watches & Warnings

Flash Flood Watch
Issued: 10:28 PM EDT Jul. 27, 2016 – National Weather Service

... Flash Flood Watch now in effect through early Friday
morning...

A Flash Flood Watch is now in effect for

* the following Kentucky counties. Bath... Elliott...
Estill... Fleming... Menifee... Montgomery... Powell... Rowan...
Johnson... Martin... Laurel... McCreary... Pulaski... Rockcastle...
Wayne... Whitley... Bell... Breathitt... Clay... Floyd... Harlan...
Jackson... Knott... Knox... Lee... Leslie... Letcher... Magoffin...
Morgan... Owsley... Perry... Pike... and Wolfe.

* It is valid through early Friday morning.

* Repeated rounds of thunderstorms area expected in a very moist
atmosphere. This will bring a threat for heavy rainfall... which
could result in flash flooding along creeks and small streams,
or in poor drainage areas.

Precautionary/preparedness actions...

A Flash Flood Watch means that conditions may develop that lead
to flash flooding. Flash flooding is a very dangerous situation.

You should monitor later forecasts and be prepared to take action
should flash flood warnings be issued.



Hal